sensor_id;sensor_type;location;lat;lon;timestamp;pressure;altitude;pressure_sealevel;temperature;humidity
59588;BME280;45412;54.472;18.464;2023-04-19T00:01:31;100847.52;;;4.29;84.72
59588;BME280;45412;54.472;18.464;2023-04-19T00:04:18;100847.52;;;4.33;84.39
59588;BME280;45412;54.472;18.464;2023-04-19T00:07:06;100844.27;;;4.35;83.93
59588;BME280;45412;54.472;18.464;2023-04-19T00:09:53;100832.98;;;4.37;83.41
59588;BME280;45412;54.472;18.464;2023-04-19T00:12:40;100840.14;;;4.38;83.22
59588;BME280;45412;54.472;18.464;2023-04-19T00:15:27;100830.83;;;4.38;82.65
59588;BME280;45412;54.472;18.464;2023-04-19T00:18:13;100828.30;;;4.40;82.41
59588;BME280;45412;54.472;18.464;2023-04-19T00:21:00;100823.27;;;4.42;81.66
59588;BME280;45412;54.472;18.464;2023-04-19T00:23:48;100824.44;;;4.44;81.63
59588;BME280;45412;54.472;18.464;2023-04-19T00:26:34;100824.27;;;4.44;81.48
59588;BME280;45412;54.472;18.464;2023-04-19T00:29:21;100821.64;;;4.43;81.11
59588;BME280;45412;54.472;18.464;2023-04-19T00:32:08;100821.27;;;4.44;81.02
59588;BME280;45412;54.472;18.464;2023-04-19T00:34:55;100814.77;;;4.44;80.68
59588;BME280;45412;54.472;18.464;2023-04-19T00:37:43;100812.67;;;4.44;80.85
59588;BME280;45412;54.472;18.464;2023-04-19T00:40:32;100805.83;;;4.43;81.14
59588;BME280;45412;54.472;18.464;2023-04-19T00:43:19;100804.13;;;4.41;80.98
59588;BME280;45412;54.472;18.464;2023-04-19T00:46:06;100802.30;;;4.40;81.31
59588;BME280;45412;54.472;18.464;2023-04-19T00:48:54;100798.65;;;4.38;81.13
59588;BME280;45412;54.472;18.464;2023-04-19T00:51:41;100801.44;;;4.39;81.45
59588;BME280;45412;54.472;18.464;2023-04-19T00:54:30;100797.66;;;4.37;81.60
59588;BME280;45412;54.472;18.464;2023-04-19T00:57:16;100797.38;;;4.35;82.12
59588;BME280;45412;54.472;18.464;2023-04-19T01:00:04;100795.03;;;4.33;82.31
59588;BME280;45412;54.472;18.464;2023-04-19T01:02:55;100792.40;;;4.28;82.61
59588;BME280;45412;54.472;18.464;2023-04-19T01:05:41;100791.70;;;4.23;82.88
59588;BME280;45412;54.472;18.464;2023-04-19T01:08:31;100789.30;;;4.17;83.27
59588;BME280;45412;54.472;18.464;2023-04-19T01:11:17;100785.15;;;4.11;83.81
59588;BME280;45412;54.472;18.464;2023-04-19T01:14:04;100783.59;;;4.06;84.15
59588;BME280;45412;54.472;18.464;2023-04-19T01:16:51;100775.15;;;3.97;84.30
59588;BME280;45412;54.472;18.464;2023-04-19T01:19:38;100778.80;;;3.94;84.68
59588;BME280;45412;54.472;18.464;2023-04-19T01:22:26;100775.54;;;3.87;85.07
59588;BME280;45412;54.472;18.464;2023-04-19T01:25:13;100776.09;;;3.82;85.70
59588;BME280;45412;54.472;18.464;2023-04-19T01:28:01;100775.71;;;3.78;85.85
59588;BME280;45412;54.472;18.464;2023-04-19T01:30:48;100771.23;;;3.76;86.08
59588;BME280;45412;54.472;18.464;2023-04-19T01:33:39;100765.41;;;3.72;85.98
59588;BME280;45412;54.472;18.464;2023-04-19T01:36:28;100759.93;;;3.68;86.56
59588;BME280;45412;54.472;18.464;2023-04-19T01:39:15;100750.96;;;3.64;87.04
59588;BME280;45412;54.472;18.464;2023-04-19T01:42:01;100753.68;;;3.62;87.00
59588;BME280;45412;54.472;18.464;2023-04-19T01:44:49;100750.27;;;3.59;86.90
59588;BME280;45412;54.472;18.464;2023-04-19T01:47:35;100748.27;;;3.57;86.90
59588;BME280;45412;54.472;18.464;2023-04-19T01:50:22;100745.52;;;3.55;86.99
59588;BME280;45412;54.472;18.464;2023-04-19T01:53:10;100738.98;;;3.52;87.15
59588;BME280;45412;54.472;18.464;2023-04-19T01:55:57;100736.12;;;3.48;87.35
59588;BME280;45412;54.472;18.464;2023-04-19T01:58:45;100736.42;;;3.45;87.60
59588;BME280;45412;54.472;18.464;2023-04-19T02:01:33;100740.35;;;3.43;87.64
59588;BME280;45412;54.472;18.464;2023-04-19T02:04:21;100737.48;;;3.40;87.46
59588;BME280;45412;54.472;18.464;2023-04-19T02:07:08;100740.04;;;3.37;87.48
59588;BME280;45412;54.472;18.464;2023-04-19T02:09:54;100736.79;;;3.35;87.94
59588;BME280;45412;54.472;18.464;2023-04-19T02:12:40;100735.11;;;3.33;88.12
59588;BME280;45412;54.472;18.464;2023-04-19T02:15:28;100728.81;;;3.32;88.22
59588;BME280;45412;54.472;18.464;2023-04-19T02:18:16;100724.66;;;3.30;88.29
59588;BME280;45412;54.472;18.464;2023-04-19T02:21:08;100720.70;;;3.29;87.95
59588;BME280;45412;54.472;18.464;2023-04-19T02:23:54;100724.64;;;3.27;88.17
59588;BME280;45412;54.472;18.464;2023-04-19T02:26:40;100728.81;;;3.22;88.21
59588;BME280;45412;54.472;18.464;2023-04-19T02:29:27;100728.04;;;3.20;88.31
59588;BME280;45412;54.472;18.464;2023-04-19T02:32:13;100721.98;;;3.18;88.68
59588;BME280;45412;54.472;18.464;2023-04-19T02:35:00;100722.88;;;3.17;89.10
59588;BME280;45412;54.472;18.464;2023-04-19T02:37:48;100719.04;;;3.17;89.03
59588;BME280;45412;54.472;18.464;2023-04-19T02:40:34;100714.70;;;3.15;89.55
59588;BME280;45412;54.472;18.464;2023-04-19T02:43:21;100711.39;;;3.15;89.40
59588;BME280;45412;54.472;18.464;2023-04-19T02:46:09;100709.36;;;3.13;89.39
59588;BME280;45412;54.472;18.464;2023-04-19T02:48:55;100699.61;;;3.11;89.55
59588;BME280;45412;54.472;18.464;2023-04-19T02:51:42;100702.67;;;3.09;89.76
59588;BME280;45412;54.472;18.464;2023-04-19T02:54:29;100702.93;;;3.06;90.02
59588;BME280;45412;54.472;18.464;2023-04-19T02:57:15;100699.19;;;3.08;90.40
59588;BME280;45412;54.472;18.464;2023-04-19T03:00:05;100698.10;;;3.09;90.27
59588;BME280;45412;54.472;18.464;2023-04-19T03:02:52;100699.09;;;3.11;90.29
59588;BME280;45412;54.472;18.464;2023-04-19T03:05:39;100697.52;;;3.10;90.27
59588;BME280;45412;54.472;18.464;2023-04-19T03:08:26;100696.83;;;3.11;90.02
59588;BME280;45412;54.472;18.464;2023-04-19T03:11:16;100697.19;;;3.10;89.83
59588;BME280;45412;54.472;18.464;2023-04-19T03:14:03;100690.98;;;3.07;89.91
59588;BME280;45412;54.472;18.464;2023-04-19T03:16:49;100691.55;;;3.06;90.07
59588;BME280;45412;54.472;18.464;2023-04-19T03:19:36;100690.10;;;3.07;90.18
59588;BME280;45412;54.472;18.464;2023-04-19T03:22:24;100687.59;;;3.09;90.24
59588;BME280;45412;54.472;18.464;2023-04-19T03:25:12;100692.30;;;3.09;90.02
59588;BME280;45412;54.472;18.464;2023-04-19T03:28:01;100688.81;;;3.09;90.24
59588;BME280;45412;54.472;18.464;2023-04-19T03:31:07;100686.35;;;3.09;89.79
59588;BME280;45412;54.472;18.464;2023-04-19T03:33:54;100686.29;;;3.11;89.97
59588;BME280;45412;54.472;18.464;2023-04-19T03:36:45;100675.33;;;3.08;90.05
59588;BME280;45412;54.472;18.464;2023-04-19T03:39:34;100684.63;;;3.17;89.63
59588;BME280;45412;54.472;18.464;2023-04-19T03:42:22;100682.40;;;3.21;89.38
59588;BME280;45412;54.472;18.464;2023-04-19T03:45:30;100680.25;;;3.22;89.46
59588;BME280;45412;54.472;18.464;2023-04-19T03:48:16;100680.67;;;3.25;89.36
59588;BME280;45412;54.472;18.464;2023-04-19T03:51:03;100682.77;;;3.30;89.41
59588;BME280;45412;54.472;18.464;2023-04-19T03:53:53;100677.44;;;3.36;89.06
59588;BME280;45412;54.472;18.464;2023-04-19T03:56:40;100674.88;;;3.44;88.72
59588;BME280;45412;54.472;18.464;2023-04-19T03:59:27;100675.84;;;3.51;88.21
59588;BME280;45412;54.472;18.464;2023-04-19T04:02:14;100674.91;;;3.56;87.93
59588;BME280;45412;54.472;18.464;2023-04-19T04:05:03;100678.07;;;3.61;87.66
59588;BME280;45412;54.472;18.464;2023-04-19T04:07:50;100679.38;;;3.68;87.25
59588;BME280;45412;54.472;18.464;2023-04-19T04:10:37;100680.16;;;3.75;86.92
59588;BME280;45412;54.472;18.464;2023-04-19T04:13:24;100678.66;;;3.82;86.23
59588;BME280;45412;54.472;18.464;2023-04-19T04:16:21;100670.95;;;3.90;85.88
59588;BME280;45412;54.472;18.464;2023-04-19T04:19:08;100671.50;;;3.99;85.30
59588;BME280;45412;54.472;18.464;2023-04-19T04:21:58;100656.40;;;3.98;84.88
59588;BME280;45412;54.472;18.464;2023-04-19T04:24:45;100666.70;;;4.13;84.27
59588;BME280;45412;54.472;18.464;2023-04-19T04:27:55;100669.02;;;4.21;83.78
59588;BME280;45412;54.472;18.464;2023-04-19T04:30:43;100671.05;;;4.27;83.44
59588;BME280;45412;54.472;18.464;2023-04-19T04:33:31;100665.55;;;4.32;82.41
59588;BME280;45412;54.472;18.464;2023-04-19T04:36:21;100667.43;;;4.38;81.96
59588;BME280;45412;54.472;18.464;2023-04-19T04:39:16;100669.30;;;4.43;81.74
59588;BME280;45412;54.472;18.464;2023-04-19T04:42:03;100662.92;;;4.45;81.23
59588;BME280;45412;54.472;18.464;2023-04-19T04:44:53;100663.63;;;4.49;80.95
59588;BME280;45412;54.472;18.464;2023-04-19T04:47:43;100662.80;;;4.52;80.49
59588;BME280;45412;54.472;18.464;2023-04-19T04:50:31;100665.92;;;4.57;80.01
59588;BME280;45412;54.472;18.464;2023-04-19T04:53:21;100665.70;;;4.62;79.35
59588;BME280;45412;54.472;18.464;2023-04-19T04:56:07;100661.61;;;4.67;79.09
59588;BME280;45412;54.472;18.464;2023-04-19T04:58:54;100666.17;;;4.75;79.01
59588;BME280;45412;54.472;18.464;2023-04-19T05:01:47;100663.69;;;4.80;78.28
59588;BME280;45412;54.472;18.464;2023-04-19T05:04:34;100668.86;;;4.87;77.79
59588;BME280;45412;54.472;18.464;2023-04-19T05:07:25;100670.02;;;4.92;77.65
59588;BME280;45412;54.472;18.464;2023-04-19T05:10:12;100670.95;;;4.99;77.74
59588;BME280;45412;54.472;18.464;2023-04-19T05:13:04;100672.73;;;4.98;76.52
59588;BME280;45412;54.472;18.464;2023-04-19T05:15:51;100671.55;;;5.01;76.72
59588;BME280;45412;54.472;18.464;2023-04-19T05:18:40;100670.85;;;5.05;76.50
59588;BME280;45412;54.472;18.464;2023-04-19T05:21:27;100674.13;;;5.10;76.26
59588;BME280;45412;54.472;18.464;2023-04-19T05:24:14;100671.75;;;5.12;75.88
59588;BME280;45412;54.472;18.464;2023-04-19T05:27:02;100672.40;;;5.17;75.84
59588;BME280;45412;54.472;18.464;2023-04-19T05:29:51;100671.82;;;5.22;75.57
59588;BME280;45412;54.472;18.464;2023-04-19T05:32:40;100668.62;;;5.34;75.38
59588;BME280;45412;54.472;18.464;2023-04-19T05:35:32;100658.63;;;5.45;74.19
59588;BME280;45412;54.472;18.464;2023-04-19T05:38:23;100654.41;;;5.56;73.52
59588;BME280;45412;54.472;18.464;2023-04-19T05:41:19;100653.91;;;5.70;72.80
59588;BME280;45412;54.472;18.464;2023-04-19T05:44:07;100657.42;;;5.78;72.40
59588;BME280;45412;54.472;18.464;2023-04-19T05:46:55;100651.55;;;5.79;71.91
59588;BME280;45412;54.472;18.464;2023-04-19T05:50:03;100648.98;;;5.81;71.60
59588;BME280;45412;54.472;18.464;2023-04-19T05:52:54;100644.80;;;5.85;71.22
59588;BME280;45412;54.472;18.464;2023-04-19T05:55:42;100643.98;;;5.94;71.21
59588;BME280;45412;54.472;18.464;2023-04-19T05:58:34;100638.77;;;6.01;70.23
59588;BME280;45412;54.472;18.464;2023-04-19T06:01:22;100638.67;;;6.09;70.07
59588;BME280;45412;54.472;18.464;2023-04-19T06:04:09;100639.25;;;6.15;69.43
59588;BME280;45412;54.472;18.464;2023-04-19T06:06:57;100644.88;;;6.20;69.31
59588;BME280;45412;54.472;18.464;2023-04-19T06:09:45;100641.23;;;6.22;69.19
59588;BME280;45412;54.472;18.464;2023-04-19T06:12:31;100640.13;;;6.26;68.68
59588;BME280;45412;54.472;18.464;2023-04-19T06:15:19;100635.27;;;6.31;68.81
59588;BME280;45412;54.472;18.464;2023-04-19T06:18:07;100632.39;;;6.36;68.19
59588;BME280;45412;54.472;18.464;2023-04-19T06:21:05;100630.45;;;6.46;67.74
59588;BME280;45412;54.472;18.464;2023-04-19T06:23:55;100601.14;;;6.47;67.04
59588;BME280;45412;54.472;18.464;2023-04-19T06:26:43;100623.16;;;6.71;66.20
59588;BME280;45412;54.472;18.464;2023-04-19T06:29:29;100622.39;;;6.80;66.18
59588;BME280;45412;54.472;18.464;2023-04-19T06:32:16;100624.09;;;6.91;64.97
59588;BME280;45412;54.472;18.464;2023-04-19T06:35:04;100624.44;;;7.14;64.81
59588;BME280;45412;54.472;18.464;2023-04-19T06:37:51;100624.36;;;7.54;63.17
59588;BME280;45412;54.472;18.464;2023-04-19T06:40:37;100624.33;;;7.70;62.11
59588;BME280;45412;54.472;18.464;2023-04-19T06:43:25;100621.84;;;7.77;61.47
59588;BME280;45412;54.472;18.464;2023-04-19T06:46:12;100617.61;;;7.83;61.51
59588;BME280;45412;54.472;18.464;2023-04-19T06:49:00;100617.21;;;8.05;60.78
59588;BME280;45412;54.472;18.464;2023-04-19T06:51:47;100618.90;;;8.22;59.96
59588;BME280;45412;54.472;18.464;2023-04-19T06:54:34;100612.88;;;8.70;58.56
59588;BME280;45412;54.472;18.464;2023-04-19T06:57:24;100621.16;;;9.19;56.63
59588;BME280;45412;54.472;18.464;2023-04-19T07:00:11;100630.79;;;9.87;53.94
59588;BME280;45412;54.472;18.464;2023-04-19T07:02:59;100640.52;;;10.41;52.33
59588;BME280;45412;54.472;18.464;2023-04-19T07:05:48;100632.86;;;11.16;50.15
59588;BME280;45412;54.472;18.464;2023-04-19T07:08:38;100637.96;;;12.08;47.57
59588;BME280;45412;54.472;18.464;2023-04-19T07:11:35;100633.98;;;12.40;46.31
59588;BME280;45412;54.472;18.464;2023-04-19T07:14:22;100626.17;;;12.20;46.34
59588;BME280;45412;54.472;18.464;2023-04-19T07:17:08;100630.65;;;12.20;46.24
59588;BME280;45412;54.472;18.464;2023-04-19T07:19:55;100622.30;;;12.46;45.67
59588;BME280;45412;54.472;18.464;2023-04-19T07:22:41;100621.50;;;12.36;45.45
59588;BME280;45412;54.472;18.464;2023-04-19T07:25:28;100616.67;;;12.26;45.05
59588;BME280;45412;54.472;18.464;2023-04-19T07:28:14;100615.42;;;12.75;44.30
59588;BME280;45412;54.472;18.464;2023-04-19T07:31:01;100606.20;;;12.59;43.93
59588;BME280;45412;54.472;18.464;2023-04-19T07:33:49;100619.98;;;12.01;44.94
59588;BME280;45412;54.472;18.464;2023-04-19T07:36:35;100620.73;;;11.47;45.97
59588;BME280;45412;54.472;18.464;2023-04-19T07:39:23;100616.16;;;11.19;46.85
59588;BME280;45412;54.472;18.464;2023-04-19T07:42:10;100613.24;;;11.42;46.95
59588;BME280;45412;54.472;18.464;2023-04-19T07:44:56;100612.86;;;11.89;46.74
59588;BME280;45412;54.472;18.464;2023-04-19T07:47:44;100605.66;;;12.91;43.94
59588;BME280;45412;54.472;18.464;2023-04-19T07:50:31;100593.03;;;14.24;42.04
59588;BME280;45412;54.472;18.464;2023-04-19T07:53:19;100595.19;;;14.75;40.53
59588;BME280;45412;54.472;18.464;2023-04-19T07:56:07;100581.95;;;14.40;39.50
59588;BME280;45412;54.472;18.464;2023-04-19T07:58:54;100572.58;;;13.94;39.93
59588;BME280;45412;54.472;18.464;2023-04-19T08:01:54;100580.73;;;13.60;40.76
59588;BME280;45412;54.472;18.464;2023-04-19T08:04:41;100585.44;;;13.35;41.09
59588;BME280;45412;54.472;18.464;2023-04-19T08:07:32;100594.41;;;12.78;42.11
59588;BME280;45412;54.472;18.464;2023-04-19T08:10:18;100592.85;;;12.29;43.02
59588;BME280;45412;54.472;18.464;2023-04-19T08:13:07;100587.97;;;11.58;44.47
59588;BME280;45412;54.472;18.464;2023-04-19T08:15:54;100587.97;;;10.73;45.87
59588;BME280;45412;54.472;18.464;2023-04-19T08:18:43;100601.56;;;10.06;47.57
59588;BME280;45412;54.472;18.464;2023-04-19T08:21:31;100613.36;;;9.42;49.92
59588;BME280;45412;54.472;18.464;2023-04-19T08:24:27;100610.94;;;8.78;51.98
59588;BME280;45412;54.472;18.464;2023-04-19T08:27:14;100604.30;;;8.26;53.93
59588;BME280;45412;54.472;18.464;2023-04-19T08:30:01;100608.66;;;7.85;55.68
59588;BME280;45412;54.472;18.464;2023-04-19T08:32:48;100607.60;;;7.57;57.11
59588;BME280;45412;54.472;18.464;2023-04-19T08:35:37;100605.41;;;7.45;57.80
59588;BME280;45412;54.472;18.464;2023-04-19T08:38:26;100599.29;;;7.22;58.80
59588;BME280;45412;54.472;18.464;2023-04-19T08:41:13;100604.27;;;6.99;59.42
59588;BME280;45412;54.472;18.464;2023-04-19T08:44:00;100619.50;;;6.78;60.72
59588;BME280;45412;54.472;18.464;2023-04-19T08:46:49;100621.25;;;6.65;61.55
59588;BME280;45412;54.472;18.464;2023-04-19T08:49:38;100617.68;;;6.52;62.37
59588;BME280;45412;54.472;18.464;2023-04-19T08:52:29;100615.84;;;6.36;63.17
59588;BME280;45412;54.472;18.464;2023-04-19T08:55:19;100616.12;;;6.27;63.84
59588;BME280;45412;54.472;18.464;2023-04-19T08:58:06;100622.25;;;6.21;64.59
59588;BME280;45412;54.472;18.464;2023-04-19T09:01:06;100622.42;;;6.10;64.73
59588;BME280;45412;54.472;18.464;2023-04-19T09:03:53;100619.42;;;6.06;65.41
59588;BME280;45412;54.472;18.464;2023-04-19T09:06:53;100621.43;;;6.12;65.76
59588;BME280;45412;54.472;18.464;2023-04-19T09:09:40;100612.84;;;6.19;65.72
59588;BME280;45412;54.472;18.464;2023-04-19T09:13:04;100608.23;;;6.16;65.93
59588;BME280;45412;54.472;18.464;2023-04-19T09:15:52;100612.45;;;6.16;66.35
59588;BME280;45412;54.472;18.464;2023-04-19T09:18:56;100614.28;;;6.18;66.57
59588;BME280;45412;54.472;18.464;2023-04-19T09:22:14;100608.86;;;6.21;67.78
59588;BME280;45412;54.472;18.464;2023-04-19T09:25:05;100606.84;;;6.19;68.77
59588;BME280;45412;54.472;18.464;2023-04-19T09:28:14;100601.77;;;6.11;70.09
59588;BME280;45412;54.472;18.464;2023-04-19T09:31:14;100608.16;;;6.00;70.74
59588;BME280;45412;54.472;18.464;2023-04-19T09:34:22;100610.34;;;5.90;72.28
59588;BME280;45412;54.472;18.464;2023-04-19T09:37:12;100607.70;;;5.76;72.63
59588;BME280;45412;54.472;18.464;2023-04-19T09:40:23;100603.80;;;5.58;74.73
59588;BME280;45412;54.472;18.464;2023-04-19T09:43:10;100608.17;;;5.44;75.89
59588;BME280;45412;54.472;18.464;2023-04-19T09:46:03;100611.16;;;5.37;77.58
59588;BME280;45412;54.472;18.464;2023-04-19T09:48:50;100598.73;;;5.24;78.99
59588;BME280;45412;54.472;18.464;2023-04-19T09:51:41;100600.02;;;5.08;80.18
59588;BME280;45412;54.472;18.464;2023-04-19T09:54:27;100599.48;;;4.92;80.96
59588;BME280;45412;54.472;18.464;2023-04-19T09:57:15;100597.79;;;4.87;81.86
59588;BME280;45412;54.472;18.464;2023-04-19T10:00:02;100596.83;;;4.85;83.50
59588;BME280;45412;54.472;18.464;2023-04-19T10:02:58;100591.45;;;4.84;84.35
59588;BME280;45412;54.472;18.464;2023-04-19T10:05:45;100591.52;;;4.78;84.95
59588;BME280;45412;54.472;18.464;2023-04-19T10:08:32;100591.58;;;4.73;85.58
59588;BME280;45412;54.472;18.464;2023-04-19T10:11:25;100593.64;;;4.66;86.14
59588;BME280;45412;54.472;18.464;2023-04-19T10:14:14;100597.96;;;4.56;87.59
59588;BME280;45412;54.472;18.464;2023-04-19T10:17:01;100601.14;;;4.47;88.14
59588;BME280;45412;54.472;18.464;2023-04-19T10:19:59;100603.00;;;4.36;89.51
59588;BME280;45412;54.472;18.464;2023-04-19T10:22:51;100603.67;;;4.29;89.65
59588;BME280;45412;54.472;18.464;2023-04-19T10:25:38;100604.80;;;4.23;90.65
59588;BME280;45412;54.472;18.464;2023-04-19T10:28:29;100626.35;;;4.16;91.30
59588;BME280;45412;54.472;18.464;2023-04-19T10:31:19;100628.33;;;4.11;92.04
59588;BME280;45412;54.472;18.464;2023-04-19T10:34:11;100619.36;;;4.07;92.31
59588;BME280;45412;54.472;18.464;2023-04-19T10:36:58;100616.39;;;4.06;92.68
59588;BME280;45412;54.472;18.464;2023-04-19T10:39:44;100606.35;;;4.07;93.40
59588;BME280;45412;54.472;18.464;2023-04-19T10:46:14;100590.09;;;4.09;93.44
59588;BME280;45412;54.472;18.464;2023-04-19T10:49:03;100587.15;;;4.08;93.49
59588;BME280;45412;54.472;18.464;2023-04-19T10:51:52;100583.10;;;4.05;93.38
59588;BME280;45412;54.472;18.464;2023-04-19T10:54:43;100576.49;;;4.03;93.63
59588;BME280;45412;54.472;18.464;2023-04-19T10:58:05;100576.67;;;3.99;94.39
59588;BME280;45412;54.472;18.464;2023-04-19T11:01:35;100579.79;;;3.96;94.81
59588;BME280;45412;54.472;18.464;2023-04-19T11:07:15;100577.80;;;3.93;95.58
59588;BME280;45412;54.472;18.464;2023-04-19T11:10:07;100584.97;;;3.94;95.57
59588;BME280;45412;54.472;18.464;2023-04-19T11:12:55;100582.70;;;3.93;95.61
59588;BME280;45412;54.472;18.464;2023-04-19T11:15:42;100583.16;;;3.95;95.30
59588;BME280;45412;54.472;18.464;2023-04-19T11:18:29;100578.30;;;3.98;95.27
59588;BME280;45412;54.472;18.464;2023-04-19T11:21:19;100578.75;;;4.04;95.17
59588;BME280;45412;54.472;18.464;2023-04-19T11:26:55;100575.44;;;4.12;94.10
59588;BME280;45412;54.472;18.464;2023-04-19T11:29:43;100575.27;;;4.15;93.78
59588;BME280;45412;54.472;18.464;2023-04-19T11:32:30;100573.34;;;4.19;93.85
59588;BME280;45412;54.472;18.464;2023-04-19T11:35:20;100575.52;;;4.26;93.75
59588;BME280;45412;54.472;18.464;2023-04-19T11:38:48;100569.03;;;4.34;93.32
59588;BME280;45412;54.472;18.464;2023-04-19T11:41:38;100570.27;;;4.41;92.99
59588;BME280;45412;54.472;18.464;2023-04-19T11:44:25;100565.73;;;4.49;92.44
59588;BME280;45412;54.472;18.464;2023-04-19T11:47:12;100567.20;;;4.55;91.85
59588;BME280;45412;54.472;18.464;2023-04-19T11:53:24;100553.10;;;4.76;91.24
59588;BME280;45412;54.472;18.464;2023-04-19T11:56:13;100550.42;;;4.85;90.79
59588;BME280;45412;54.472;18.464;2023-04-19T11:59:00;100554.98;;;4.93;89.74
59588;BME280;45412;54.472;18.464;2023-04-19T12:01:46;100553.48;;;4.98;89.39
59588;BME280;45412;54.472;18.464;2023-04-19T12:04:33;100548.95;;;5.05;89.21
59588;BME280;45412;54.472;18.464;2023-04-19T12:07:20;100551.29;;;5.11;89.22
59588;BME280;45412;54.472;18.464;2023-04-19T12:10:10;100546.20;;;5.15;88.19
59588;BME280;45412;54.472;18.464;2023-04-19T12:12:57;100542.29;;;5.20;87.36
59588;BME280;45412;54.472;18.464;2023-04-19T12:15:45;100541.30;;;5.25;87.90
59588;BME280;45412;54.472;18.464;2023-04-19T12:18:49;100539.27;;;5.31;87.67
59588;BME280;45412;54.472;18.464;2023-04-19T12:21:36;100538.05;;;5.38;86.08
59588;BME280;45412;54.472;18.464;2023-04-19T12:24:23;100538.94;;;5.45;85.71
59588;BME280;45412;54.472;18.464;2023-04-19T12:27:09;100537.20;;;5.53;85.71
59588;BME280;45412;54.472;18.464;2023-04-19T12:29:57;100534.86;;;5.57;84.89
59588;BME280;45412;54.472;18.464;2023-04-19T12:32:43;100532.70;;;5.61;84.12
59588;BME280;45412;54.472;18.464;2023-04-19T12:35:32;100537.61;;;5.76;84.54
59588;BME280;45412;54.472;18.464;2023-04-19T12:38:19;100533.27;;;5.86;82.95
59588;BME280;45412;54.472;18.464;2023-04-19T12:41:05;100534.69;;;5.96;82.83
59588;BME280;45412;54.472;18.464;2023-04-19T12:43:51;100532.34;;;6.11;82.78
59588;BME280;45412;54.472;18.464;2023-04-19T12:46:38;100527.04;;;6.32;82.53
59588;BME280;45412;54.472;18.464;2023-04-19T12:49:24;100522.65;;;6.62;81.43
59588;BME280;45412;54.472;18.464;2023-04-19T12:52:10;100520.80;;;6.86;79.64
59588;BME280;45412;54.472;18.464;2023-04-19T12:54:57;100526.34;;;7.01;79.64
59588;BME280;45412;54.472;18.464;2023-04-19T12:57:43;100525.58;;;7.14;78.45
59588;BME280;45412;54.472;18.464;2023-04-19T13:00:29;100529.89;;;7.23;77.78
59588;BME280;45412;54.472;18.464;2023-04-19T13:03:15;100530.45;;;7.19;77.40
59588;BME280;45412;54.472;18.464;2023-04-19T13:06:03;100534.60;;;7.21;77.14
59588;BME280;45412;54.472;18.464;2023-04-19T13:08:49;100534.64;;;7.29;77.06
59588;BME280;45412;54.472;18.464;2023-04-19T13:11:36;100534.73;;;7.56;77.35
59588;BME280;45412;54.472;18.464;2023-04-19T13:14:27;100530.71;;;7.76;76.41
59588;BME280;45412;54.472;18.464;2023-04-19T13:17:14;100533.13;;;7.84;74.66
59588;BME280;45412;54.472;18.464;2023-04-19T13:20:00;100527.71;;;7.94;75.04
59588;BME280;45412;54.472;18.464;2023-04-19T13:22:46;100527.01;;;8.09;75.37
59588;BME280;45412;54.472;18.464;2023-04-19T13:25:33;100530.30;;;8.22;76.12
59588;BME280;45412;54.472;18.464;2023-04-19T13:28:21;100529.73;;;8.31;74.47
59588;BME280;45412;54.472;18.464;2023-04-19T13:31:07;100523.36;;;8.29;72.17
59588;BME280;45412;54.472;18.464;2023-04-19T13:33:54;100531.64;;;8.35;73.68
59588;BME280;45412;54.472;18.464;2023-04-19T13:36:40;100537.81;;;8.48;73.93
59588;BME280;45412;54.472;18.464;2023-04-19T13:39:27;100542.27;;;8.65;73.70
59588;BME280;45412;54.472;18.464;2023-04-19T13:42:13;100538.42;;;8.78;71.99
59588;BME280;45412;54.472;18.464;2023-04-19T13:45:01;100538.99;;;8.97;72.12
59588;BME280;45412;54.472;18.464;2023-04-19T13:47:50;100537.14;;;9.18;72.08
59588;BME280;45412;54.472;18.464;2023-04-19T13:50:38;100534.05;;;9.33;71.49
59588;BME280;45412;54.472;18.464;2023-04-19T13:53:26;100526.60;;;9.44;70.29
59588;BME280;45412;54.472;18.464;2023-04-19T13:56:13;100526.45;;;9.46;69.57
59588;BME280;45412;54.472;18.464;2023-04-19T13:58:59;100525.63;;;9.40;67.92
59588;BME280;45412;54.472;18.464;2023-04-19T14:01:46;100518.33;;;9.38;68.50
59588;BME280;45412;54.472;18.464;2023-04-19T14:04:32;100521.27;;;9.42;68.29
59588;BME280;45412;54.472;18.464;2023-04-19T14:07:22;100518.49;;;9.46;67.95
59588;BME280;45412;54.472;18.464;2023-04-19T14:10:25;100519.88;;;9.52;67.63
59588;BME280;45412;54.472;18.464;2023-04-19T14:13:39;100520.27;;;9.60;66.95
59588;BME280;45412;54.472;18.464;2023-04-19T14:16:35;100521.73;;;9.72;67.12
59588;BME280;45412;54.472;18.464;2023-04-19T14:19:38;100518.60;;;9.82;65.50
59588;BME280;45412;54.472;18.464;2023-04-19T14:22:31;100516.79;;;9.93;65.21
59588;BME280;45412;54.472;18.464;2023-04-19T14:25:29;100511.06;;;9.91;63.94
59588;BME280;45412;54.472;18.464;2023-04-19T14:28:15;100519.23;;;9.99;63.75
59588;BME280;45412;54.472;18.464;2023-04-19T14:31:03;100519.48;;;10.11;64.24
59588;BME280;45412;54.472;18.464;2023-04-19T14:33:52;100520.86;;;10.22;64.48
59588;BME280;45412;54.472;18.464;2023-04-19T14:36:42;100522.41;;;10.33;63.52
59588;BME280;45412;54.472;18.464;2023-04-19T14:39:32;100522.42;;;10.36;63.35
59588;BME280;45412;54.472;18.464;2023-04-19T14:42:21;100521.41;;;10.35;62.71
59588;BME280;45412;54.472;18.464;2023-04-19T14:45:09;100523.63;;;10.42;62.95
59588;BME280;45412;54.472;18.464;2023-04-19T14:47:55;100524.05;;;10.40;62.44
59588;BME280;45412;54.472;18.464;2023-04-19T14:50:42;100529.88;;;10.38;62.28
59588;BME280;45412;54.472;18.464;2023-04-19T14:53:28;100529.52;;;10.36;61.86
59588;BME280;45412;54.472;18.464;2023-04-19T14:56:16;100532.98;;;10.32;61.81